Time;durP1;ratioP1;P1;durP2;ratioP2;P2;SDS_P1;SDS_P2;PMS_P1;PMS_P2;Temp;Humidity;BMP_temperature;BMP_pressure;BME280_temperature;BME280_humidity;BME280_pressure;Samples;Min_cycle;Max_cycle;Signal;HPM_P1;HPM_P2
2023/08/17 00:01:55;;;;;;;1.92;0.82;;;23.30;70.10;;;;;;5053534;28;20081;-64
2023/08/17 00:04:20;;;;;;;2.65;1.00;;;23.30;70.10;;;;;;5055306;28;20044;-63
2023/08/17 00:06:46;;;;;;;2.00;0.80;;;23.30;70.10;;;;;;5053016;28;20041;-64
2023/08/17 00:09:12;;;;;;;1.75;0.77;;;23.30;70.10;;;;;;5054847;28;20072;-64
2023/08/17 00:11:38;;;;;;;2.97;0.90;;;23.30;70.10;;;;;;5054554;28;20049;-64
2023/08/17 00:14:04;;;;;;;2.72;1.02;;;23.30;70.10;;;;;;5052865;28;20491;-64
2023/08/17 00:16:31;;;;;;;1.98;0.82;;;23.30;70.00;;;;;;5058520;28;20041;-64
2023/08/17 00:18:57;;;;;;;2.63;1.08;;;23.30;70.00;;;;;;5063436;28;20081;-63
2023/08/17 00:21:22;;;;;;;2.80;1.10;;;23.30;70.00;;;;;;5054358;28;20037;-64
2023/08/17 00:23:49;;;;;;;2.50;0.93;;;23.30;70.00;;;;;;5054918;28;20033;-64
2023/08/17 00:26:14;;;;;;;1.80;0.80;;;23.30;70.00;;;;;;5054459;28;20472;-63
2023/08/17 00:28:40;;;;;;;1.70;0.80;;;23.30;70.00;;;;;;5086386;28;20071;-64
2023/08/17 00:31:05;;;;;;;2.85;0.90;;;23.30;70.00;;;;;;5054536;28;20076;-64
2023/08/17 00:33:31;;;;;;;1.55;0.80;;;23.30;69.90;;;;;;5052674;28;20033;-64
2023/08/17 00:35:56;;;;;;;2.50;0.80;;;23.30;70.00;;;;;;5070024;28;20118;-63
2023/08/17 00:38:22;;;;;;;2.47;1.00;;;23.30;70.00;;;;;;5087069;28;20400;-64
2023/08/17 00:40:48;;;;;;;2.20;1.10;;;23.30;69.90;;;;;;5053737;28;20802;-63
2023/08/17 00:43:13;;;;;;;1.88;0.90;;;23.30;69.90;;;;;;5086831;28;20072;-64
2023/08/17 00:45:39;;;;;;;1.90;0.75;;;23.30;69.90;;;;;;5053130;28;20045;-64
2023/08/17 00:48:07;;;;;;;1.98;0.88;;;23.20;69.90;;;;;;5053542;28;20060;-64
2023/08/17 00:50:33;;;;;;;2.67;0.93;;;23.20;69.90;;;;;;5054581;28;20127;-63
2023/08/17 00:52:58;;;;;;;1.23;0.70;;;23.20;69.90;;;;;;5070128;28;20075;-64
2023/08/17 00:55:24;;;;;;;3.30;1.17;;;23.20;69.90;;;;;;5054020;28;20485;-63
2023/08/17 00:57:50;;;;;;;1.52;0.70;;;23.20;69.90;;;;;;5051810;28;20076;-63
2023/08/17 01:00:16;;;;;;;1.40;0.90;;;23.20;69.90;;;;;;5052667;28;20041;-64
2023/08/17 01:02:42;;;;;;;2.00;0.98;;;23.20;69.90;;;;;;5052337;28;20041;-63
2023/08/17 01:05:08;;;;;;;1.23;0.73;;;23.20;69.90;;;;;;5053717;28;20088;-64
2023/08/17 01:07:33;;;;;;;2.30;1.00;;;23.20;69.80;;;;;;5086521;28;20040;-63
2023/08/17 01:09:59;;;;;;;1.60;0.80;;;23.20;69.90;;;;;;5072415;28;20158;-64
2023/08/17 01:12:37;;;;;;;2.10;0.82;;;23.20;69.80;;;;;;5072529;28;20051;-64
2023/08/17 01:15:13;;;;;;;0.90;0.80;;;23.20;69.80;;;;;;5072983;28;20123;-64
2023/08/17 01:18:00;;;;;;;1.77;0.88;;;23.20;69.80;;;;;;5039246;28;20506;-64
2023/08/17 01:20:25;;;;;;;1.58;0.80;;;23.20;69.80;;;;;;5072613;28;20063;-64
2023/08/17 01:22:53;;;;;;;2.30;0.93;;;23.20;69.80;;;;;;5054605;28;20037;-64
2023/08/17 01:25:19;;;;;;;1.73;0.73;;;23.20;69.80;;;;;;5072656;28;20123;-63
2023/08/17 01:27:45;;;;;;;2.95;0.95;;;23.20;69.80;;;;;;5073531;28;20119;-63
2023/08/17 01:30:15;;;;;;;1.55;0.82;;;23.10;69.70;;;;;;5073026;28;20126;-64
2023/08/17 01:32:41;;;;;;;2.70;0.82;;;23.10;69.80;;;;;;5072439;28;20050;-64
2023/08/17 01:35:16;;;;;;;2.58;0.95;;;23.10;69.80;;;;;;5073290;28;20434;-64
2023/08/17 01:37:42;;;;;;;2.67;0.82;;;23.10;69.80;;;;;;5072545;28;20051;-63
2023/08/17 01:40:09;;;;;;;1.80;0.60;;;23.20;69.80;;;;;;5072623;28;20052;-63
2023/08/17 01:42:35;;;;;;;1.23;0.80;;;23.10;69.80;;;;;;5055749;28;20041;-63
2023/08/17 01:45:01;;;;;;;1.45;0.75;;;23.20;69.80;;;;;;5072898;28;20044;-65
2023/08/17 01:47:26;;;;;;;1.73;0.93;;;23.10;69.70;;;;;;5073680;28;20529;-64
2023/08/17 01:49:52;;;;;;;1.50;0.85;;;23.10;69.70;;;;;;5072164;28;20044;-64
2023/08/17 01:52:17;;;;;;;2.03;0.77;;;23.10;69.70;;;;;;5070314;28;20365;-64
2023/08/17 01:54:43;;;;;;;2.38;1.00;;;23.20;69.80;;;;;;5072684;28;20078;-63
2023/08/17 01:57:08;;;;;;;1.80;0.90;;;23.10;69.70;;;;;;5073073;28;20072;-63
2023/08/17 01:59:34;;;;;;;2.40;0.75;;;23.10;69.70;;;;;;5071082;28;20504;-64
2023/08/17 02:02:00;;;;;;;1.55;0.68;;;23.10;69.70;;;;;;5072681;28;20084;-64
2023/08/17 02:04:25;;;;;;;1.30;0.70;;;23.10;69.70;;;;;;5071283;28;20044;-64
2023/08/17 02:06:51;;;;;;;1.38;0.68;;;23.10;69.70;;;;;;5069759;28;20037;-63
2023/08/17 02:09:16;;;;;;;1.77;0.90;;;23.10;69.70;;;;;;5071985;28;20040;-64
2023/08/17 02:11:42;;;;;;;1.98;0.77;;;23.10;69.70;;;;;;5072524;28;20036;-64
2023/08/17 02:14:07;;;;;;;1.63;0.75;;;23.10;69.70;;;;;;5071017;28;20044;-64
2023/08/17 02:16:34;;;;;;;1.58;0.90;;;23.10;69.70;;;;;;5071861;28;20037;-63
2023/08/17 02:18:59;;;;;;;1.92;0.80;;;23.10;69.70;;;;;;5071950;28;20479;-64
2023/08/17 02:21:25;;;;;;;1.70;0.77;;;23.10;69.70;;;;;;5072467;28;20079;-64
2023/08/17 02:23:51;;;;;;;1.33;0.77;;;23.10;69.70;;;;;;5072586;28;20051;-64
2023/08/17 02:26:16;;;;;;;2.55;0.90;;;23.10;69.70;;;;;;5072216;28;20040;-64
2023/08/17 02:28:42;;;;;;;1.83;0.80;;;23.10;69.70;;;;;;5072553;28;20047;-63
2023/08/17 02:31:07;;;;;;;1.35;0.60;;;23.00;69.60;;;;;;5072594;28;20040;-63
2023/08/17 02:33:33;;;;;;;1.65;0.70;;;23.00;69.60;;;;;;5071972;28;20040;-64
2023/08/17 02:35:59;;;;;;;1.85;0.80;;;23.00;69.60;;;;;;5071704;28;20048;-64
2023/08/17 02:38:24;;;;;;;2.15;0.70;;;23.00;69.70;;;;;;5074466;28;20560;-63
2023/08/17 02:40:50;;;;;;;2.00;0.80;;;23.00;69.70;;;;;;5071788;28;20105;-63
2023/08/17 02:43:16;;;;;;;1.27;0.65;;;23.00;69.70;;;;;;5072759;28;20044;-63
2023/08/17 02:45:41;;;;;;;3.42;0.93;;;23.00;69.60;;;;;;5072538;28;20032;-64
2023/08/17 02:48:07;;;;;;;1.70;0.70;;;23.00;69.70;;;;;;5071470;28;20040;-63
2023/08/17 02:50:32;;;;;;;1.77;0.90;;;23.10;69.70;;;;;;5072074;28;20070;-63
2023/08/17 02:52:59;;;;;;;1.77;0.90;;;23.00;69.70;;;;;;5072104;28;20040;-64
2023/08/17 02:55:25;;;;;;;1.58;0.85;;;23.00;69.70;;;;;;5071722;28;20045;-63
2023/08/17 02:57:50;;;;;;;1.83;0.90;;;23.00;69.60;;;;;;5072186;28;20374;-63
2023/08/17 03:00:16;;;;;;;1.25;0.68;;;23.00;69.60;;;;;;5072776;28;20045;-63
2023/08/17 03:02:41;;;;;;;2.20;0.65;;;23.00;69.70;;;;;;5070794;28;20377;-63
2023/08/17 03:05:07;;;;;;;1.92;0.70;;;23.00;69.70;;;;;;5072632;28;20121;-63
2023/08/17 03:07:33;;;;;;;3.00;0.80;;;23.00;69.60;;;;;;5072697;28;20068;-63
2023/08/17 03:09:58;;;;;;;1.90;0.85;;;23.00;69.60;;;;;;5071329;28;20044;-63
2023/08/17 03:12:24;;;;;;;1.75;0.68;;;23.00;69.60;;;;;;5071176;28;20040;-63
2023/08/17 03:14:50;;;;;;;2.00;0.88;;;23.00;69.60;;;;;;5072049;28;20044;-63
2023/08/17 03:17:15;;;;;;;2.05;0.90;;;23.00;69.60;;;;;;5070529;28;20052;-63
2023/08/17 03:19:41;;;;;;;2.10;0.70;;;23.00;69.60;;;;;;5072117;28;20043;-63
2023/08/17 03:22:06;;;;;;;3.70;0.80;;;23.00;69.60;;;;;;5076292;28;20037;-63
2023/08/17 03:24:32;;;;;;;1.23;0.70;;;22.90;69.50;;;;;;5075339;28;20427;-64
2023/08/17 03:26:57;;;;;;;1.73;0.82;;;22.90;69.60;;;;;;5075698;28;20036;-63
2023/08/17 03:29:23;;;;;;;2.08;0.85;;;22.90;69.50;;;;;;5075106;28;20045;-63
2023/08/17 03:31:49;;;;;;;1.80;0.68;;;22.90;69.50;;;;;;5075834;28;20044;-64
2023/08/17 03:34:15;;;;;;;2.50;0.90;;;22.90;69.60;;;;;;5075868;28;20071;-63
2023/08/17 03:36:41;;;;;;;2.45;0.80;;;22.90;69.60;;;;;;5074944;28;20127;-63
2023/08/17 03:39:06;;;;;;;1.50;0.65;;;23.00;69.60;;;;;;5075784;28;20449;-63
2023/08/17 03:41:32;;;;;;;2.67;0.85;;;22.90;69.50;;;;;;5074453;28;20119;-64
2023/08/17 03:43:58;;;;;;;1.00;0.68;;;22.90;69.50;;;;;;5072981;28;20120;-63
2023/08/17 03:46:23;;;;;;;1.45;0.60;;;22.90;69.50;;;;;;5074732;28;20044;-64
2023/08/17 03:48:49;;;;;;;1.20;0.68;;;22.90;69.60;;;;;;5074990;28;20407;-64
2023/08/17 03:51:14;;;;;;;1.48;0.80;;;23.00;69.60;;;;;;5074376;28;20049;-63
2023/08/17 03:53:40;;;;;;;2.03;0.60;;;22.90;69.60;;;;;;5075459;28;20036;-65
2023/08/17 03:56:06;;;;;;;1.00;0.70;;;22.90;69.60;;;;;;5075822;28;20049;-64
2023/08/17 03:58:34;;;;;;;2.15;0.80;;;22.90;69.60;;;;;;5075023;28;20045;-64
2023/08/17 04:01:00;;;;;;;1.58;0.85;;;22.90;69.60;;;;;;5068865;28;21510;-63
2023/08/17 04:03:25;;;;;;;2.58;0.68;;;22.90;69.60;;;;;;5073560;28;20088;-64
2023/08/17 04:05:51;;;;;;;1.38;0.70;;;22.90;69.60;;;;;;5072489;28;20044;-64
2023/08/17 04:08:16;;;;;;;1.60;0.77;;;22.90;69.60;;;;;;5075307;28;20051;-65
2023/08/17 04:10:42;;;;;;;1.10;0.65;;;22.90;69.60;;;;;;5075245;28;20127;-64
2023/08/17 04:13:08;;;;;;;1.90;0.70;;;22.90;69.60;;;;;;5068894;28;20498;-64
2023/08/17 04:15:33;;;;;;;1.20;0.70;;;22.90;69.60;;;;;;5063874;28;20045;-64
2023/08/17 04:17:59;;;;;;;1.10;0.70;;;22.90;69.60;;;;;;5055036;28;20563;-64
2023/08/17 04:20:25;;;;;;;1.83;1.10;;;22.90;69.60;;;;;;5052637;28;20041;-63
2023/08/17 04:22:51;;;;;;;1.67;0.60;;;22.90;69.60;;;;;;5053731;28;20052;-64
2023/08/17 04:25:16;;;;;;;1.10;0.60;;;22.90;69.60;;;;;;5055357;28;20044;-63
2023/08/17 04:27:42;;;;;;;2.60;0.70;;;22.80;69.60;;;;;;5054096;28;20048;-63
2023/08/17 04:30:08;;;;;;;2.47;0.75;;;22.80;69.60;;;;;;5054882;28;20091;-63
2023/08/17 04:32:34;;;;;;;1.00;0.55;;;22.90;69.60;;;;;;5052170;28;20052;-64
2023/08/17 04:35:00;;;;;;;2.10;0.80;;;22.90;69.60;;;;;;5052630;28;20061;-64
2023/08/17 04:37:25;;;;;;;1.90;0.70;;;22.80;69.60;;;;;;5053645;28;20174;-64
2023/08/17 04:39:51;;;;;;;1.38;0.60;;;22.80;69.60;;;;;;5053580;28;20400;-63
2023/08/17 04:42:16;;;;;;;1.02;0.57;;;22.80;69.60;;;;;;5054968;28;20120;-63
2023/08/17 04:44:42;;;;;;;1.90;0.68;;;22.80;69.60;;;;;;5053239;28;20045;-64
2023/08/17 04:47:08;;;;;;;1.65;0.70;;;22.80;69.60;;;;;;5052768;28;20045;-64
2023/08/17 04:49:33;;;;;;;1.20;0.68;;;22.80;69.50;;;;;;5053280;28;20408;-63
2023/08/17 04:51:59;;;;;;;1.95;0.70;;;22.80;69.50;;;;;;5054395;28;20037;-64
2023/08/17 04:54:24;;;;;;;1.92;0.68;;;22.80;69.50;;;;;;5054097;28;20052;-64
2023/08/17 04:56:50;;;;;;;2.17;0.60;;;22.80;69.50;;;;;;5054187;28;20048;-64
2023/08/17 04:59:15;;;;;;;1.50;0.63;;;22.80;69.50;;;;;;5054389;28;20059;-63
2023/08/17 05:01:41;;;;;;;0.90;0.70;;;22.80;69.60;;;;;;5052161;28;20127;-64
2023/08/17 05:04:07;;;;;;;2.20;0.85;;;22.80;69.60;;;;;;5053145;28;20432;-63
2023/08/17 05:06:32;;;;;;;3.83;0.77;;;22.80;69.50;;;;;;5053570;28;20123;-64
2023/08/17 05:08:58;;;;;;;2.22;0.80;;;22.80;69.50;;;;;;5052311;28;20049;-63
2023/08/17 05:11:24;;;;;;;2.10;0.60;;;22.80;69.60;;;;;;5052800;28;20072;-64
2023/08/17 05:13:49;;;;;;;1.58;0.70;;;22.80;69.60;;;;;;5053844;28;20041;-63
2023/08/17 05:16:15;;;;;;;1.42;0.73;;;22.80;69.60;;;;;;5052755;28;20106;-64
2023/08/17 05:18:40;;;;;;;1.83;0.77;;;22.80;69.50;;;;;;5053728;28;20526;-63
2023/08/17 05:21:06;;;;;;;3.40;0.75;;;22.80;69.50;;;;;;5052620;28;20048;-64
2023/08/17 05:23:31;;;;;;;3.05;0.70;;;22.80;69.60;;;;;;5051935;28;20115;-64
2023/08/17 05:25:57;;;;;;;2.15;0.70;;;22.80;69.60;;;;;;5053513;28;20052;-63
2023/08/17 05:28:23;;;;;;;1.98;0.77;;;22.80;69.60;;;;;;5052784;28;20045;-63
2023/08/17 05:30:49;;;;;;;1.40;0.90;;;22.80;69.60;;;;;;5052525;28;20037;-63
2023/08/17 05:33:17;;;;;;;2.10;0.80;;;22.80;69.60;;;;;;5053847;28;20056;-71
2023/08/17 05:35:43;;;;;;;5.25;0.90;;;22.80;69.70;;;;;;5063197;28;20044;-60
2023/08/17 05:38:09;;;;;;;3.55;0.77;;;22.80;69.80;;;;;;5073033;28;20067;-61
2023/08/17 05:40:35;;;;;;;1.92;0.70;;;22.80;69.80;;;;;;5073338;28;20044;-61
2023/08/17 05:43:01;;;;;;;3.13;0.80;;;22.80;69.70;;;;;;5071752;28;20052;-62
2023/08/17 05:45:26;;;;;;;3.65;0.80;;;22.80;69.90;;;;;;5073229;28;20044;-62
2023/08/17 05:47:52;;;;;;;3.78;0.90;;;22.80;69.90;;;;;;5071256;28;20036;-62
2023/08/17 05:50:18;;;;;;;3.35;0.82;;;22.80;69.90;;;;;;5071231;28;20080;-62
2023/08/17 05:52:43;;;;;;;4.50;0.80;;;22.80;69.90;;;;;;5072937;28;20113;-62
2023/08/17 05:55:09;;;;;;;8.07;0.98;;;22.90;69.90;;;;;;5073484;28;20403;-61
2023/08/17 05:57:34;;;;;;;4.97;1.13;;;22.90;70.00;;;;;;5070923;28;20474;-62
2023/08/17 06:00:00;;;;;;;2.58;0.80;;;22.80;70.00;;;;;;5070234;28;20053;-60
2023/08/17 06:02:26;;;;;;;8.13;1.00;;;22.90;69.90;;;;;;5073235;28;20040;-63
2023/08/17 06:04:51;;;;;;;4.55;0.82;;;22.90;69.80;;;;;;5071886;28;20062;-62
2023/08/17 06:07:17;;;;;;;4.05;0.88;;;22.90;69.80;;;;;;5073089;28;20123;-62
2023/08/17 06:09:42;;;;;;;4.13;1.20;;;22.90;69.80;;;;;;5072267;28;20079;-62
2023/08/17 06:12:08;;;;;;;3.53;1.50;;;22.90;70.00;;;;;;5072435;28;20052;-62
2023/08/17 06:14:34;;;;;;;2.45;1.00;;;22.80;69.90;;;;;;5071036;28;20037;-63
2023/08/17 06:16:59;;;;;;;3.20;0.95;;;22.90;70.00;;;;;;5073182;28;20135;-62
2023/08/17 06:19:25;;;;;;;2.95;1.00;;;22.90;69.90;;;;;;5071794;28;20041;-63
2023/08/17 06:21:51;;;;;;;6.68;1.20;;;22.90;69.90;;;;;;5067620;28;20090;-62
2023/08/17 06:24:17;;;;;;;3.08;0.80;;;22.90;70.00;;;;;;5071767;28;20079;-62
2023/08/17 06:26:44;;;;;;;2.90;0.90;;;22.90;69.90;;;;;;5070461;28;20076;-62
2023/08/17 06:29:09;;;;;;;4.72;0.90;;;22.90;69.90;;;;;;5072528;28;20115;-62
2023/08/17 06:31:35;;;;;;;3.08;0.93;;;22.90;69.80;;;;;;5072208;28;20147;-62
2023/08/17 06:34:01;;;;;;;4.80;0.80;;;22.90;69.90;;;;;;5071788;28;20059;-62
2023/08/17 06:36:30;;;;;;;4.28;0.93;;;22.90;69.80;;;;;;5071934;28;20048;-62
2023/08/17 06:38:55;;;;;;;4.03;0.95;;;22.90;69.80;;;;;;5071238;28;20105;-62
2023/08/17 06:41:21;;;;;;;6.60;1.00;;;22.90;69.80;;;;;;5064964;28;20036;-62
2023/08/17 06:43:46;;;;;;;5.60;1.20;;;22.90;69.70;;;;;;5062808;28;20420;-63
2023/08/17 06:46:12;;;;;;;5.30;1.42;;;22.90;69.70;;;;;;5072140;28;20048;-63
2023/08/17 06:48:38;;;;;;;8.65;1.50;;;22.90;69.80;;;;;;5072146;28;20102;-63
2023/08/17 06:51:04;;;;;;;7.60;1.83;;;22.90;69.80;;;;;;5072860;28;20119;-62
2023/08/17 06:53:30;;;;;;;7.90;2.20;;;22.90;69.90;;;;;;5071683;28;20052;-63
2023/08/17 06:55:55;;;;;;;11.07;2.05;;;22.90;70.00;;;;;;5073317;28;20041;-62
2023/08/17 06:58:21;;;;;;;8.10;2.47;;;22.90;70.00;;;;;;5060698;28;20036;-62
2023/08/17 07:00:46;;;;;;;8.70;2.60;;;22.90;70.00;;;;;;5077175;28;20048;-62
2023/08/17 07:03:12;;;;;;;6.72;2.20;;;22.90;70.00;;;;;;5077439;28;20051;-62
2023/08/17 07:05:38;;;;;;;8.95;2.40;;;22.90;70.00;;;;;;5076292;28;20083;-62
2023/08/17 07:08:04;;;;;;;8.77;2.25;;;22.90;70.00;;;;;;5077853;28;20033;-62
2023/08/17 07:10:29;;;;;;;9.90;2.88;;;22.90;70.00;;;;;;5079311;28;20093;-63
2023/08/17 07:12:55;;;;;;;11.13;2.50;;;22.90;69.90;;;;;;5077494;28;20040;-63
2023/08/17 07:15:20;;;;;;;15.88;2.78;;;22.90;69.90;;;;;;5078210;28;20066;-62
2023/08/17 07:17:46;;;;;;;10.15;2.22;;;22.90;69.90;;;;;;5078842;28;20048;-62
2023/08/17 07:20:12;;;;;;;7.82;2.25;;;22.90;69.90;;;;;;5078863;28;20044;-62
2023/08/17 07:22:37;;;;;;;12.00;2.10;;;22.90;70.00;;;;;;5078650;28;20127;-62
2023/08/17 07:25:03;;;;;;;7.55;2.00;;;22.90;70.00;;;;;;5077529;28;20044;-61
2023/08/17 07:27:29;;;;;;;7.53;2.83;;;22.90;70.00;;;;;;5079254;28;20040;-62
2023/08/17 07:29:55;;;;;;;7.55;1.70;;;22.90;69.80;;;;;;5077698;28;20074;-62
2023/08/17 07:32:21;;;;;;;9.93;2.25;;;22.90;69.80;;;;;;5078979;28;20036;-61
2023/08/17 07:34:47;;;;;;;9.52;2.35;;;22.90;69.80;;;;;;5076980;28;20062;-62
2023/08/17 07:37:13;;;;;;;9.50;1.80;;;22.90;69.90;;;;;;5078304;28;20055;-61
2023/08/17 07:39:38;;;;;;;8.48;1.90;;;22.90;69.80;;;;;;5078254;28;20056;-62
2023/08/17 07:42:05;;;;;;;6.57;1.75;;;22.90;70.00;;;;;;5078972;28;20045;-60
2023/08/17 07:44:34;;;;;;;8.07;2.33;;;22.90;69.70;;;;;;5077761;28;20101;-61
2023/08/17 07:47:00;;;;;;;6.15;1.60;;;22.90;69.80;;;;;;5077411;28;20484;-62
2023/08/17 07:49:25;;;;;;;10.13;2.00;;;22.90;69.70;;;;;;5078573;28;20052;-61
2023/08/17 07:51:51;;;;;;;9.50;2.00;;;22.90;69.60;;;;;;5059366;28;20488;-61
2023/08/17 07:54:17;;;;;;;7.60;2.08;;;22.90;69.60;;;;;;5078770;28;20049;-62
2023/08/17 07:56:42;;;;;;;8.70;2.20;;;22.90;69.70;;;;;;5077792;28;20353;-62
2023/08/17 07:59:08;;;;;;;10.45;2.10;;;22.90;69.70;;;;;;5077851;28;20052;-62
2023/08/17 08:01:33;;;;;;;8.52;1.55;;;22.90;69.50;;;;;;5078006;28;20481;-62
2023/08/17 08:03:59;;;;;;;9.52;1.70;;;22.90;69.20;;;;;;5077932;28;20045;-62
2023/08/17 08:06:24;;;;;;;9.32;1.60;;;22.90;69.10;;;;;;5076200;28;20045;-62
2023/08/17 08:08:50;;;;;;;6.68;1.60;;;22.90;68.90;;;;;;5072721;28;20051;-62
2023/08/17 08:11:16;;;;;;;10.68;2.00;;;22.90;69.00;;;;;;5074716;28;20056;-62
2023/08/17 08:13:41;;;;;;;6.72;1.63;;;22.80;69.10;;;;;;5075192;28;20044;-62
2023/08/17 08:16:07;;;;;;;8.45;1.30;;;22.90;69.10;;;;;;5075388;28;20123;-62
2023/08/17 08:18:32;;;;;;;7.88;1.77;;;22.80;69.10;;;;;;5074508;28;20123;-63
2023/08/17 08:20:58;;;;;;;7.18;1.52;;;22.80;69.10;;;;;;5073733;28;20195;-62
2023/08/17 08:23:30;;;;;;;8.55;1.50;;;22.80;69.10;;;;;;5073698;28;20048;-62
2023/08/17 08:25:55;;;;;;;6.10;1.92;;;22.80;69.10;;;;;;5074286;28;20090;-62
2023/08/17 08:28:21;;;;;;;5.82;1.40;;;22.80;69.10;;;;;;5075440;28;20044;-62
2023/08/17 08:30:46;;;;;;;4.88;1.40;;;22.80;69.10;;;;;;5073481;28;20041;-62
2023/08/17 08:33:12;;;;;;;3.28;1.20;;;22.80;69.10;;;;;;5074363;28;20094;-62
2023/08/17 08:35:37;;;;;;;3.70;1.30;;;22.80;69.10;;;;;;5074407;28;20446;-62
2023/08/17 08:38:03;;;;;;;4.05;1.65;;;22.80;69.10;;;;;;5056988;28;20037;-62
2023/08/17 08:40:29;;;;;;;6.15;1.70;;;22.80;69.10;;;;;;5073831;28;20048;-62
2023/08/17 08:42:59;;;;;;;7.50;1.45;;;22.80;69.10;;;;;;5073320;28;20048;-62
2023/08/17 08:45:24;;;;;;;4.03;1.17;;;22.80;69.10;;;;;;5073736;28;20079;-62
2023/08/17 08:47:50;;;;;;;8.63;1.33;;;22.80;69.10;;;;;;5055812;28;20087;-63
2023/08/17 08:50:21;;;;;;;4.95;1.42;;;22.80;69.20;;;;;;5057004;28;20045;-64
2023/08/17 08:53:11;;;;;;;6.07;1.20;;;22.80;69.10;;;;;;5073943;28;20117;-62
2023/08/17 08:55:45;;;;;;;4.18;1.33;;;22.80;69.10;;;;;;5073520;28;20045;-62
2023/08/17 08:58:10;;;;;;;5.78;1.23;;;22.80;69.10;;;;;;5056671;28;20044;-63
2023/08/17 09:00:36;;;;;;;3.95;1.20;;;22.80;69.10;;;;;;5072216;28;20090;-62
2023/08/17 09:03:03;;;;;;;4.30;1.30;;;22.80;69.10;;;;;;5056525;28;20032;-62
2023/08/17 09:05:29;;;;;;;4.40;1.13;;;22.80;69.10;;;;;;5074439;28;20143;-62
2023/08/17 09:07:55;;;;;;;4.18;1.33;;;22.80;69.10;;;;;;5073393;28;20047;-62
2023/08/17 09:10:20;;;;;;;3.78;1.23;;;22.80;69.10;;;;;;5039422;28;20045;-62
2023/08/17 09:12:47;;;;;;;3.53;1.08;;;22.80;69.10;;;;;;5072582;28;20123;-62
2023/08/17 09:15:12;;;;;;;5.75;1.10;;;22.90;69.00;;;;;;5073499;28;20054;-62
2023/08/17 09:17:38;;;;;;;3.95;1.25;;;22.80;68.90;;;;;;5073462;28;20135;-62
2023/08/17 09:20:07;;;;;;;3.60;1.33;;;22.90;68.90;;;;;;5073851;28;20087;-62
2023/08/17 09:22:43;;;;;;;4.38;1.27;;;22.90;68.90;;;;;;5073477;28;20102;-63
2023/08/17 09:25:09;;;;;;;3.78;1.30;;;22.90;68.90;;;;;;5073898;28;20045;-62
2023/08/17 09:27:36;;;;;;;4.45;1.10;;;22.90;68.90;;;;;;5073887;28;20040;-63
2023/08/17 09:30:06;;;;;;;2.63;0.82;;;22.90;68.90;;;;;;5073198;28;20123;-62
2023/08/17 09:32:32;;;;;;;2.10;0.90;;;22.90;68.90;;;;;;5074221;28;20045;-63
2023/08/17 09:35:05;;;;;;;4.93;1.33;;;22.90;68.90;;;;;;5073480;28;20052;-62
2023/08/17 09:37:31;;;;;;;5.35;1.20;;;22.90;68.90;;;;;;5074085;28;20119;-62
2023/08/17 09:39:59;;;;;;;5.88;1.20;;;22.80;68.90;;;;;;5073772;28;20044;-62
2023/08/17 09:42:25;;;;;;;4.95;1.27;;;22.90;68.90;;;;;;5072852;28;20507;-62
2023/08/17 09:44:52;;;;;;;2.45;1.10;;;22.90;68.90;;;;;;5071816;28;20068;-63
2023/08/17 09:47:23;;;;;;;2.67;0.80;;;22.80;68.90;;;;;;5072348;28;20054;-62
2023/08/17 09:49:50;;;;;;;4.65;1.02;;;22.80;68.90;;;;;;5071314;28;20044;-62
2023/08/17 09:52:16;;;;;;;2.95;1.13;;;22.80;68.90;;;;;;5072133;28;20119;-62
2023/08/17 09:54:41;;;;;;;2.38;1.10;;;22.80;69.00;;;;;;5073240;28;20120;-62
2023/08/17 09:57:07;;;;;;;2.38;1.00;;;22.90;69.00;;;;;;5071642;28;20076;-63
2023/08/17 09:59:33;;;;;;;4.03;1.00;;;22.80;69.00;;;;;;5072149;28;20051;-62
2023/08/17 10:01:58;;;;;;;3.00;1.08;;;22.80;69.60;;;;;;5073303;28;20045;-62
2023/08/17 10:04:24;;;;;;;2.03;0.90;;;22.80;69.10;;;;;;5071475;28;20071;-62
2023/08/17 10:06:52;;;;;;;4.00;1.00;;;22.80;69.10;;;;;;5071560;28;20036;-62
2023/08/17 10:09:21;;;;;;;2.95;0.85;;;22.80;69.10;;;;;;5054912;28;20045;-62
2023/08/17 10:11:46;;;;;;;3.72;0.88;;;22.80;69.10;;;;;;5072177;28;20045;-62
2023/08/17 10:14:34;;;;;;;3.58;1.00;;;22.80;69.10;;;;;;5073040;28;20049;-62
2023/08/17 10:17:01;;;;;;;2.30;0.90;;;22.90;69.10;;;;;;5071895;28;20052;-63
2023/08/17 10:19:38;;;;;;;2.58;1.05;;;22.80;69.10;;;;;;5071169;28;20049;-62
2023/08/17 10:22:33;;;;;;;3.45;0.95;;;22.90;69.10;;;;;;5072139;28;20041;-62
2023/08/17 10:25:00;;;;;;;2.25;0.98;;;22.90;69.10;;;;;;5064064;28;20114;-62
2023/08/17 10:27:26;;;;;;;2.72;0.77;;;22.90;69.10;;;;;;5055260;28;20085;-62
2023/08/17 10:29:52;;;;;;;2.90;0.93;;;22.90;69.10;;;;;;5070899;28;20480;-62
2023/08/17 10:32:18;;;;;;;3.67;0.85;;;22.90;69.10;;;;;;5070879;28;20111;-62
2023/08/17 10:34:43;;;;;;;2.00;0.82;;;22.90;69.10;;;;;;5071108;28;20450;-62
2023/08/17 10:37:09;;;;;;;2.30;0.77;;;22.90;69.10;;;;;;5055338;28;20063;-62
2023/08/17 10:39:39;;;;;;;3.20;0.98;;;22.90;69.10;;;;;;5070534;28;20040;-62
2023/08/17 10:42:04;;;;;;;2.10;0.90;;;22.90;69.00;;;;;;5072650;28;20405;-62
2023/08/17 10:44:48;;;;;;;2.08;0.80;;;22.90;69.00;;;;;;5054733;28;20544;-62
2023/08/17 10:47:28;;;;;;;2.00;0.90;;;22.90;68.90;;;;;;5072001;28;20053;-62
2023/08/17 10:49:58;;;;;;;4.78;1.00;;;22.90;69.00;;;;;;5072506;28;20488;-62
2023/08/17 10:52:31;;;;;;;1.85;0.80;;;22.90;68.90;;;;;;5072084;28;20037;-63
2023/08/17 10:55:01;;;;;;;2.03;0.90;;;22.90;68.90;;;;;;5070994;28;20127;-62
2023/08/17 10:57:34;;;;;;;1.60;0.75;;;22.90;68.90;;;;;;5072463;28;20446;-62
2023/08/17 11:00:29;;;;;;;5.07;1.30;;;22.90;69.00;;;;;;5071775;28;20118;-62
2023/08/17 11:03:11;;;;;;;2.75;0.90;;;22.90;69.00;;;;;;5072376;28;20484;-62
2023/08/17 11:05:49;;;;;;;1.70;0.70;;;22.90;69.00;;;;;;5072291;28;20492;-62
2023/08/17 11:08:28;;;;;;;2.20;0.90;;;22.90;69.00;;;;;;5070363;28;20040;-62
2023/08/17 11:11:06;;;;;;;3.08;0.90;;;22.90;69.10;;;;;;5071070;28;20052;-63
2023/08/17 11:13:37;;;;;;;3.05;0.93;;;22.90;69.00;;;;;;5071855;28;20044;-62
2023/08/17 11:16:03;;;;;;;1.77;0.80;;;22.90;69.00;;;;;;5072487;28;20048;-62
2023/08/17 11:18:29;;;;;;;5.75;0.90;;;22.90;69.00;;;;;;5072173;28;20052;-62
2023/08/17 11:20:55;;;;;;;1.42;0.80;;;22.90;69.00;;;;;;5071498;28;20045;-62
2023/08/17 11:23:20;;;;;;;2.63;1.20;;;22.90;69.00;;;;;;5054001;28;20048;-62
2023/08/17 11:25:46;;;;;;;2.65;1.00;;;22.90;69.00;;;;;;5072140;28;20041;-62
2023/08/17 11:28:14;;;;;;;2.20;0.75;;;22.90;69.00;;;;;;5071858;28;20469;-62
2023/08/17 11:30:39;;;;;;;2.25;1.00;;;22.90;69.00;;;;;;5071850;28;20154;-62
2023/08/17 11:33:05;;;;;;;2.17;0.90;;;22.90;69.00;;;;;;5072348;28;20064;-62
2023/08/17 11:35:31;;;;;;;2.55;1.10;;;22.90;69.00;;;;;;5071153;28;20496;-62
2023/08/17 11:37:56;;;;;;;1.48;0.88;;;22.90;69.00;;;;;;5072102;28;20040;-62
2023/08/17 11:40:22;;;;;;;2.40;0.90;;;22.90;69.10;;;;;;5072343;28;20505;-62
2023/08/17 11:42:47;;;;;;;1.42;0.70;;;22.90;69.10;;;;;;5073485;28;20048;-62
2023/08/17 11:45:13;;;;;;;2.17;0.70;;;22.90;69.10;;;;;;5074629;28;20049;-62
2023/08/17 11:47:40;;;;;;;2.70;1.02;;;22.90;69.10;;;;;;5075508;28;20040;-62
2023/08/17 11:50:06;;;;;;;2.75;1.10;;;22.90;69.10;;;;;;5075020;28;20052;-62
2023/08/17 11:52:32;;;;;;;2.38;0.90;;;22.90;69.20;;;;;;5074710;28;20051;-62
2023/08/17 11:54:59;;;;;;;1.90;1.00;;;22.90;69.20;;;;;;5075366;28;20094;-62
2023/08/17 11:57:24;;;;;;;2.17;0.90;;;22.90;69.20;;;;;;5073801;28;20045;-62
2023/08/17 11:59:55;;;;;;;1.65;0.95;;;22.90;69.20;;;;;;5040849;28;20102;-63
2023/08/17 12:02:22;;;;;;;2.30;0.93;;;22.90;69.20;;;;;;5074132;28;20119;-62
2023/08/17 12:04:47;;;;;;;1.45;0.80;;;22.90;69.20;;;;;;5074750;28;20056;-62
2023/08/17 12:07:13;;;;;;;2.70;0.90;;;22.90;69.20;;;;;;5057174;28;20044;-62
2023/08/17 12:09:39;;;;;;;2.30;1.00;;;22.90;69.20;;;;;;5075211;28;20048;-62
2023/08/17 12:12:05;;;;;;;1.67;0.90;;;22.90;69.20;;;;;;5073455;28;20128;-62
2023/08/17 12:14:30;;;;;;;2.22;0.73;;;22.90;69.20;;;;;;5075273;28;20084;-62
2023/08/17 12:16:56;;;;;;;2.42;1.02;;;22.80;69.20;;;;;;5074022;28;20045;-63
2023/08/17 12:19:24;;;;;;;2.08;0.82;;;22.80;69.30;;;;;;5057794;28;20507;-62
2023/08/17 12:21:50;;;;;;;2.88;0.88;;;22.80;69.30;;;;;;5073549;28;20045;-62
2023/08/17 12:24:16;;;;;;;1.85;0.90;;;22.80;69.40;;;;;;5056578;28;20049;-62
2023/08/17 12:26:46;;;;;;;2.15;1.02;;;22.80;69.40;;;;;;5074897;28;20048;-62
2023/08/17 12:29:11;;;;;;;3.45;1.00;;;22.80;69.40;;;;;;5075141;28;20045;-62
2023/08/17 12:31:37;;;;;;;1.85;0.90;;;22.80;69.40;;;;;;5074076;28;20048;-62
2023/08/17 12:34:04;;;;;;;2.15;0.80;;;22.80;69.40;;;;;;5075223;28;20049;-62
2023/08/17 12:36:30;;;;;;;2.30;0.80;;;22.90;69.40;;;;;;5075196;28;20053;-62
2023/08/17 12:38:56;;;;;;;2.67;1.00;;;22.80;69.40;;;;;;5073670;28;20037;-62
2023/08/17 12:41:22;;;;;;;3.33;1.08;;;22.80;69.40;;;;;;5074862;28;20040;-62
2023/08/17 12:43:47;;;;;;;3.38;0.98;;;22.80;69.40;;;;;;5074491;28;20041;-62